Syracuse, Kansas
Current Conditions -  °F | °C
As of 6:35 PM on Wednesday 22 Oct 2014 (Local Time) from K3K3 Reporting Station
Clear Clear  
Wind Chill: 61°   Ceiling: Unl
Heat Index: 61°   Visibility: 10mi
Dew Point: 50°   Wind: 5mph
Humidity: 68%   Direction: 20°NNE
Pressure: 30.02"   Gusts: NA
Location:  37.98°N, 101.75°W
Report Text: K3K3 230035Z AUTO 02004KT 10SM CLR 16/10 A3002 RMK AO2
Loading
Personal Weather Stations






























Interactive Weather Map
Tropical Storm Tracking
New forecast layout! Learn more

10-Day Weather Forecast

Advertisements
Track Severe Weather on mobile